sensor_id;sensor_type;location;lat;lon;timestamp;pressure;altitude;pressure_sealevel;temperature;humidity
49759;BME280;70329;45.524;10.194;2024-03-23T00:54:12;100061.31;;;13.04;100.00
49759;BME280;70329;45.524;10.194;2024-03-23T00:56:38;100048.72;;;13.03;100.00
49759;BME280;70329;45.524;10.194;2024-03-23T00:59:06;100053.63;;;13.06;100.00
49759;BME280;70329;45.524;10.194;2024-03-23T01:01:33;100046.03;;;12.98;100.00
49759;BME280;70329;45.524;10.194;2024-03-23T01:03:59;100044.47;;;12.92;100.00
49759;BME280;70329;45.524;10.194;2024-03-23T01:06:25;100041.19;;;12.90;100.00
49759;BME280;70329;45.524;10.194;2024-03-23T01:08:52;100039.53;;;12.89;100.00
49759;BME280;70329;45.524;10.194;2024-03-23T01:11:19;100040.63;;;12.88;100.00
49759;BME280;70329;45.524;10.194;2024-03-23T01:13:46;100038.28;;;12.81;100.00
49759;BME280;70329;45.524;10.194;2024-03-23T01:16:13;100033.56;;;12.81;100.00
49759;BME280;70329;45.524;10.194;2024-03-23T01:18:41;100029.72;;;12.82;100.00
49759;BME280;70329;45.524;10.194;2024-03-23T01:21:06;100038.47;;;12.84;100.00
49759;BME280;70329;45.524;10.194;2024-03-23T01:23:34;100035.16;;;12.88;100.00
49759;BME280;70329;45.524;10.194;2024-03-23T01:26:00;100036.28;;;12.87;100.00
49759;BME280;70329;45.524;10.194;2024-03-23T01:28:27;100031.38;;;12.83;100.00
49759;BME280;70329;45.524;10.194;2024-03-23T01:30:53;100033.81;;;12.85;100.00
49759;BME280;70329;45.524;10.194;2024-03-23T01:33:20;100037.13;;;12.82;100.00
49759;BME280;70329;45.524;10.194;2024-03-23T01:35:47;100034.31;;;12.87;100.00
49759;BME280;70329;45.524;10.194;2024-03-23T01:38:17;100034.31;;;12.87;100.00
49759;BME280;70329;45.524;10.194;2024-03-23T01:40:43;100035.22;;;12.82;100.00
49759;BME280;70329;45.524;10.194;2024-03-23T01:43:09;100037.69;;;12.84;100.00
49759;BME280;70329;45.524;10.194;2024-03-23T01:45:36;100033.34;;;12.78;100.00
49759;BME280;70329;45.524;10.194;2024-03-23T01:48:04;100034.19;;;12.78;100.00
49759;BME280;70329;45.524;10.194;2024-03-23T01:50:31;100026.53;;;12.75;100.00
49759;BME280;70329;45.524;10.194;2024-03-23T01:53:00;100030.31;;;12.79;100.00
49759;BME280;70329;45.524;10.194;2024-03-23T01:55:26;100020.28;;;12.70;100.00
49759;BME280;70329;45.524;10.194;2024-03-23T01:57:56;100021.44;;;12.64;100.00
49759;BME280;70329;45.524;10.194;2024-03-23T02:00:21;100017.78;;;12.68;100.00
49759;BME280;70329;45.524;10.194;2024-03-23T02:02:49;100017.53;;;12.70;100.00
49759;BME280;70329;45.524;10.194;2024-03-23T02:05:15;100009.56;;;12.68;100.00
49759;BME280;70329;45.524;10.194;2024-03-23T02:07:42;100009.03;;;12.66;100.00
49759;BME280;70329;45.524;10.194;2024-03-23T02:10:08;99999.28;;;12.55;100.00
49759;BME280;70329;45.524;10.194;2024-03-23T02:12:38;99999.34;;;12.50;100.00
49759;BME280;70329;45.524;10.194;2024-03-23T02:15:04;100002.66;;;12.47;100.00
49759;BME280;70329;45.524;10.194;2024-03-23T02:17:33;99999.34;;;12.50;100.00
49759;BME280;70329;45.524;10.194;2024-03-23T02:20:00;99990.72;;;12.57;100.00
49759;BME280;70329;45.524;10.194;2024-03-23T02:22:35;99988.28;;;12.55;100.00
49759;BME280;70329;45.524;10.194;2024-03-23T02:25:03;99983.66;;;12.51;100.00
49759;BME280;70329;45.524;10.194;2024-03-23T02:27:29;99984.19;;;12.53;100.00
49759;BME280;70329;45.524;10.194;2024-03-23T02:29:55;99980.31;;;12.54;100.00
49759;BME280;70329;45.524;10.194;2024-03-23T02:32:21;99975.72;;;12.49;100.00
49759;BME280;70329;45.524;10.194;2024-03-23T02:34:47;99975.47;;;12.46;100.00
49759;BME280;70329;45.524;10.194;2024-03-23T02:37:13;99965.91;;;12.43;100.00
49759;BME280;70329;45.524;10.194;2024-03-23T02:39:39;99975.88;;;12.34;100.00
49759;BME280;70329;45.524;10.194;2024-03-23T02:42:07;99962.97;;;12.35;100.00
49759;BME280;70329;45.524;10.194;2024-03-23T02:44:32;99963.03;;;12.30;100.00
49759;BME280;70329;45.524;10.194;2024-03-23T02:46:59;99966.09;;;12.28;100.00
49759;BME280;70329;45.524;10.194;2024-03-23T02:49:26;99955.91;;;12.28;100.00
49759;BME280;70329;45.524;10.194;2024-03-23T02:51:52;99951.34;;;12.19;100.00
49759;BME280;70329;45.524;10.194;2024-03-23T02:54:18;99945.63;;;12.15;100.00
49759;BME280;70329;45.524;10.194;2024-03-23T02:56:44;99946.97;;;12.18;100.00
49759;BME280;70329;45.524;10.194;2024-03-23T02:59:13;99942.06;;;12.15;100.00
49759;BME280;70329;45.524;10.194;2024-03-23T03:01:39;99932.72;;;12.16;100.00
49759;BME280;70329;45.524;10.194;2024-03-23T03:04:06;99938.47;;;12.14;100.00
49759;BME280;70329;45.524;10.194;2024-03-23T03:06:33;99934.88;;;12.19;100.00
49759;BME280;70329;45.524;10.194;2024-03-23T03:08:59;99923.22;;;12.08;100.00
49759;BME280;70329;45.524;10.194;2024-03-23T03:11:25;99916.59;;;12.09;100.00
49759;BME280;70329;45.524;10.194;2024-03-23T03:13:52;99913.84;;;12.09;100.00
49759;BME280;70329;45.524;10.194;2024-03-23T03:16:24;99902.34;;;12.07;100.00
49759;BME280;70329;45.524;10.194;2024-03-23T03:18:50;99907.00;;;12.07;100.00
49759;BME280;70329;45.524;10.194;2024-03-23T03:21:18;99908.66;;;12.08;100.00
49759;BME280;70329;45.524;10.194;2024-03-23T03:23:44;99913.56;;;12.11;100.00
49759;BME280;70329;45.524;10.194;2024-03-23T03:26:11;99904.03;;;12.03;100.00
49759;BME280;70329;45.524;10.194;2024-03-23T03:28:37;99918.28;;;12.05;100.00
49759;BME280;70329;45.524;10.194;2024-03-23T03:31:03;99915.00;;;12.03;100.00
49759;BME280;70329;45.524;10.194;2024-03-23T03:33:30;99917.66;;;12.13;100.00
49759;BME280;70329;45.524;10.194;2024-03-23T03:35:57;99906.75;;;12.08;100.00
49759;BME280;70329;45.524;10.194;2024-03-23T03:38:23;99907.59;;;12.04;100.00
49759;BME280;70329;45.524;10.194;2024-03-23T03:40:50;99905.41;;;12.06;100.00
49759;BME280;70329;45.524;10.194;2024-03-23T03:43:16;99904.31;;;12.02;100.00
49759;BME280;70329;45.524;10.194;2024-03-23T03:45:42;99919.44;;;11.99;100.00
49759;BME280;70329;45.524;10.194;2024-03-23T03:48:16;99904.97;;;11.94;100.00
49759;BME280;70329;45.524;10.194;2024-03-23T03:50:44;99908.53;;;11.94;100.00
49759;BME280;70329;45.524;10.194;2024-03-23T03:53:09;99916.22;;;11.92;100.00
49759;BME280;70329;45.524;10.194;2024-03-23T03:55:37;99910.72;;;11.92;100.00
49759;BME280;70329;45.524;10.194;2024-03-23T03:58:03;99914.53;;;11.96;100.00
49759;BME280;70329;45.524;10.194;2024-03-23T04:00:29;99905.44;;;12.01;100.00
49759;BME280;70329;45.524;10.194;2024-03-23T04:02:55;99901.59;;;12.02;100.00
49759;BME280;70329;45.524;10.194;2024-03-23T04:05:21;99906.50;;;12.05;100.00
49759;BME280;70329;45.524;10.194;2024-03-23T04:07:49;99904.78;;;12.09;100.00
49759;BME280;70329;45.524;10.194;2024-03-23T04:10:17;99889.72;;;12.06;100.00
49759;BME280;70329;45.524;10.194;2024-03-23T04:12:44;99901.00;;;12.05;100.00
49759;BME280;70329;45.524;10.194;2024-03-23T04:15:12;99896.91;;;12.02;100.00
49759;BME280;70329;45.524;10.194;2024-03-23T04:17:38;99892.00;;;11.99;100.00
49759;BME280;70329;45.524;10.194;2024-03-23T04:20:08;99893.09;;;11.98;100.00
49759;BME280;70329;45.524;10.194;2024-03-23T04:22:36;99892.91;;;11.95;100.00
49759;BME280;70329;45.524;10.194;2024-03-23T04:25:04;99889.84;;;11.96;100.00
49759;BME280;70329;45.524;10.194;2024-03-23T04:27:33;99887.56;;;12.03;100.00
49759;BME280;70329;45.524;10.194;2024-03-23T04:30:01;99880.69;;;12.06;100.00
49759;BME280;70329;45.524;10.194;2024-03-23T04:32:27;99880.97;;;12.04;100.00
49759;BME280;70329;45.524;10.194;2024-03-23T04:34:54;99872.97;;;12.08;100.00
49759;BME280;70329;45.524;10.194;2024-03-23T04:37:21;99875.41;;;12.09;100.00
49759;BME280;70329;45.524;10.194;2024-03-23T04:39:48;99874.56;;;12.14;100.00
49759;BME280;70329;45.524;10.194;2024-03-23T04:42:17;99868.81;;;12.10;100.00
49759;BME280;70329;45.524;10.194;2024-03-23T04:44:44;99868.88;;;12.05;100.00
49759;BME280;70329;45.524;10.194;2024-03-23T04:47:12;99866.16;;;12.05;100.00
49759;BME280;70329;45.524;10.194;2024-03-23T04:49:39;99860.34;;;12.07;100.00
49759;BME280;70329;45.524;10.194;2024-03-23T04:52:06;99865.38;;;12.00;100.00
49759;BME280;70329;45.524;10.194;2024-03-23T04:54:33;99864.03;;;11.97;100.00
49759;BME280;70329;45.524;10.194;2024-03-23T04:57:00;99866.56;;;11.94;100.00
49759;BME280;70329;45.524;10.194;2024-03-23T04:59:29;99857.22;;;11.95;100.00
49759;BME280;70329;45.524;10.194;2024-03-23T05:01:55;99855.63;;;11.89;100.00
49759;BME280;70329;45.524;10.194;2024-03-23T05:04:21;99861.88;;;11.94;100.00
49759;BME280;70329;45.524;10.194;2024-03-23T05:06:47;99860.53;;;11.92;100.00
49759;BME280;70329;45.524;10.194;2024-03-23T05:09:14;99858.06;;;11.90;100.00
49759;BME280;70329;45.524;10.194;2024-03-23T05:11:43;99854.81;;;11.88;100.00
49759;BME280;70329;45.524;10.194;2024-03-23T05:14:10;99851.31;;;11.83;100.00
49759;BME280;70329;45.524;10.194;2024-03-23T05:16:38;99845.25;;;11.86;100.00
49759;BME280;70329;45.524;10.194;2024-03-23T05:19:04;99848.81;;;11.86;100.00
49759;BME280;70329;45.524;10.194;2024-03-23T05:21:30;99849.66;;;11.82;100.00
49759;BME280;70329;45.524;10.194;2024-03-23T05:23:57;99844.25;;;11.77;100.00
49759;BME280;70329;45.524;10.194;2024-03-23T05:26:25;99838.16;;;11.80;100.00
49759;BME280;70329;45.524;10.194;2024-03-23T05:28:51;99836.84;;;11.77;100.00
49759;BME280;70329;45.524;10.194;2024-03-23T05:31:23;99842.56;;;11.81;100.00
49759;BME280;70329;45.524;10.194;2024-03-23T05:33:50;99838.44;;;11.78;100.00
49759;BME280;70329;45.524;10.194;2024-03-23T05:36:17;99836.84;;;11.77;100.00
49759;BME280;70329;45.524;10.194;2024-03-23T05:38:44;99842.25;;;11.82;100.00
49759;BME280;70329;45.524;10.194;2024-03-23T05:41:11;99840.03;;;11.84;100.00
49759;BME280;70329;45.524;10.194;2024-03-23T05:43:37;99838.16;;;11.80;100.00
49759;BME280;70329;45.524;10.194;2024-03-23T05:46:04;99846.91;;;11.82;100.00
49759;BME280;70329;45.524;10.194;2024-03-23T05:48:30;99842.50;;;11.86;100.00
49759;BME280;70329;45.524;10.194;2024-03-23T05:50:58;99842.69;;;11.94;100.00
49759;BME280;70329;45.524;10.194;2024-03-23T05:53:25;99846.38;;;12.03;100.00
49759;BME280;70329;45.524;10.194;2024-03-23T05:56:00;99846.88;;;12.10;100.00
49759;BME280;70329;45.524;10.194;2024-03-23T05:58:29;99851.47;;;12.15;100.00
49759;BME280;70329;45.524;10.194;2024-03-23T06:01:01;99855.50;;;12.22;100.00
49759;BME280;70329;45.524;10.194;2024-03-23T06:03:29;99858.19;;;12.27;100.00
49759;BME280;70329;45.524;10.194;2024-03-23T06:05:57;99849.28;;;12.36;100.00
49759;BME280;70329;45.524;10.194;2024-03-23T06:08:24;99855.53;;;12.41;100.00
49759;BME280;70329;45.524;10.194;2024-03-23T06:10:52;99847.22;;;12.46;100.00
49759;BME280;70329;45.524;10.194;2024-03-23T06:13:20;99846.56;;;12.54;100.00
49759;BME280;70329;45.524;10.194;2024-03-23T06:15:50;99839.06;;;12.60;100.00
49759;BME280;70329;45.524;10.194;2024-03-23T06:18:15;99838.09;;;12.69;100.00
49759;BME280;70329;45.524;10.194;2024-03-23T06:20:43;99837.06;;;12.84;100.00
49759;BME280;70329;45.524;10.194;2024-03-23T06:23:10;99827.81;;;12.94;100.00
49759;BME280;70329;45.524;10.194;2024-03-23T06:25:38;99817.28;;;13.01;100.00
49759;BME280;70329;45.524;10.194;2024-03-23T06:28:04;99820.97;;;13.10;100.00
49759;BME280;70329;45.524;10.194;2024-03-23T06:30:30;99818.69;;;13.17;100.00
49759;BME280;70329;45.524;10.194;2024-03-23T06:32:57;99816.88;;;13.26;100.00
49759;BME280;70329;45.524;10.194;2024-03-23T06:35:23;99809.13;;;13.28;100.00
49759;BME280;70329;45.524;10.194;2024-03-23T06:37:50;99809.88;;;13.33;100.00
49759;BME280;70329;45.524;10.194;2024-03-23T06:40:18;99813.03;;;13.40;100.00
49759;BME280;70329;45.524;10.194;2024-03-23T06:42:44;99812.03;;;13.50;100.00
49759;BME280;70329;45.524;10.194;2024-03-23T06:45:10;99811.44;;;13.53;100.00
49759;BME280;70329;45.524;10.194;2024-03-23T06:47:36;99814.19;;;13.53;100.00
49759;BME280;70329;45.524;10.194;2024-03-23T06:50:03;99812.16;;;13.59;100.00
49759;BME280;70329;45.524;10.194;2024-03-23T06:52:29;99809.69;;;13.57;100.00
49759;BME280;70329;45.524;10.194;2024-03-23T06:54:57;99806.16;;;13.57;100.00
49759;BME280;70329;45.524;10.194;2024-03-23T06:57:24;99807.38;;;13.64;100.00
49759;BME280;70329;45.524;10.194;2024-03-23T06:59:51;99809.09;;;13.74;100.00
49759;BME280;70329;45.524;10.194;2024-03-23T07:02:16;99805.94;;;13.80;100.00
49759;BME280;70329;45.524;10.194;2024-03-23T07:04:44;99805.84;;;13.85;100.00
49759;BME280;70329;45.524;10.194;2024-03-23T07:07:11;99815.53;;;13.96;100.00
49759;BME280;70329;45.524;10.194;2024-03-23T07:09:38;99803.78;;;14.05;100.00
49759;BME280;70329;45.524;10.194;2024-03-23T07:12:05;99797.06;;;14.11;100.00
49759;BME280;70329;45.524;10.194;2024-03-23T07:14:33;99795.84;;;14.17;100.00
49759;BME280;70329;45.524;10.194;2024-03-23T07:16:58;99798.19;;;14.23;100.00
49759;BME280;70329;45.524;10.194;2024-03-23T07:19:25;99794.97;;;14.30;100.00
49759;BME280;70329;45.524;10.194;2024-03-23T07:21:50;99792.78;;;14.32;100.00
49759;BME280;70329;45.524;10.194;2024-03-23T07:24:17;99778.06;;;14.36;100.00
49759;BME280;70329;45.524;10.194;2024-03-23T07:26:43;99777.84;;;14.46;100.00
49759;BME280;70329;45.524;10.194;2024-03-23T07:29:14;99781.69;;;14.59;100.00
49759;BME280;70329;45.524;10.194;2024-03-23T07:31:41;99773.16;;;14.69;100.00
49759;BME280;70329;45.524;10.194;2024-03-23T07:34:09;99777.75;;;14.74;100.00
49759;BME280;70329;45.524;10.194;2024-03-23T07:36:34;99773.13;;;14.83;100.00
49759;BME280;70329;45.524;10.194;2024-03-23T07:39:01;99768.34;;;14.97;100.00
49759;BME280;70329;45.524;10.194;2024-03-23T07:41:26;99759.84;;;15.07;100.00
49759;BME280;70329;45.524;10.194;2024-03-23T07:43:53;99768.16;;;15.15;99.61
49759;BME280;70329;45.524;10.194;2024-03-23T07:46:20;99770.66;;;15.26;99.25
49759;BME280;70329;45.524;10.194;2024-03-23T07:48:48;99772.16;;;15.32;99.81
49759;BME280;70329;45.524;10.194;2024-03-23T07:51:16;99763.72;;;15.37;99.69
49759;BME280;70329;45.524;10.194;2024-03-23T07:53:43;99760.47;;;15.35;97.58
49759;BME280;70329;45.524;10.194;2024-03-23T07:56:09;99764.84;;;15.36;98.13
49759;BME280;70329;45.524;10.194;2024-03-23T07:58:36;99759.72;;;15.43;98.59
49759;BME280;70329;45.524;10.194;2024-03-23T08:01:08;99764.16;;;15.52;98.58
49759;BME280;70329;45.524;10.194;2024-03-23T08:03:37;99761.94;;;15.63;99.19
49759;BME280;70329;45.524;10.194;2024-03-23T08:06:09;99752.56;;;15.72;98.32
49759;BME280;70329;45.524;10.194;2024-03-23T08:08:37;99751.91;;;15.76;96.38
49759;BME280;70329;45.524;10.194;2024-03-23T08:11:04;99748.34;;;15.75;95.76
49759;BME280;70329;45.524;10.194;2024-03-23T08:13:32;99748.03;;;15.77;94.01
49759;BME280;70329;45.524;10.194;2024-03-23T08:15:59;99747.88;;;15.82;93.88
49759;BME280;70329;45.524;10.194;2024-03-23T08:18:27;99738.81;;;15.90;95.27
49759;BME280;70329;45.524;10.194;2024-03-23T08:20:57;99740.09;;;15.92;96.93
49759;BME280;70329;45.524;10.194;2024-03-23T08:23:25;99740.97;;;16.10;96.12
49759;BME280;70329;45.524;10.194;2024-03-23T08:25:52;99741.16;;;16.39;93.20
49759;BME280;70329;45.524;10.194;2024-03-23T08:28:32;99746.41;;;16.66;90.08
49759;BME280;70329;45.524;10.194;2024-03-23T08:31:01;99747.06;;;16.80;90.70
49759;BME280;70329;45.524;10.194;2024-03-23T08:33:28;99740.19;;;16.95;89.67
49759;BME280;70329;45.524;10.194;2024-03-23T08:35:54;99742.91;;;17.21;88.93
49759;BME280;70329;45.524;10.194;2024-03-23T08:38:21;99746.00;;;17.28;87.71
49759;BME280;70329;45.524;10.194;2024-03-23T08:40:56;99745.31;;;17.31;89.24
49759;BME280;70329;45.524;10.194;2024-03-23T08:43:23;99746.75;;;17.37;88.80
49759;BME280;70329;45.524;10.194;2024-03-23T08:45:48;99744.50;;;17.39;89.66
49759;BME280;70329;45.524;10.194;2024-03-23T08:48:15;99741.31;;;17.66;88.15
49759;BME280;70329;45.524;10.194;2024-03-23T08:50:40;99739.41;;;17.87;84.75
49759;BME280;70329;45.524;10.194;2024-03-23T08:53:08;99739.03;;;17.97;85.70
49759;BME280;70329;45.524;10.194;2024-03-23T08:55:33;99741.63;;;18.02;85.75
49759;BME280;70329;45.524;10.194;2024-03-23T08:58:02;99726.31;;;17.96;85.67
49759;BME280;70329;45.524;10.194;2024-03-23T09:00:27;99729.81;;;17.85;84.91
49759;BME280;70329;45.524;10.194;2024-03-23T09:02:54;99718.72;;;17.85;85.56
49759;BME280;70329;45.524;10.194;2024-03-23T09:05:20;99719.16;;;17.95;84.10
49759;BME280;70329;45.524;10.194;2024-03-23T09:07:47;99713.56;;;18.04;82.95
49759;BME280;70329;45.524;10.194;2024-03-23T09:10:12;99719.88;;;18.13;83.78
49759;BME280;70329;45.524;10.194;2024-03-23T09:12:39;99702.81;;;18.23;79.46
49759;BME280;70329;45.524;10.194;2024-03-23T09:15:06;99716.97;;;18.30;78.34
49759;BME280;70329;45.524;10.194;2024-03-23T09:17:33;99714.47;;;18.37;78.21
49759;BME280;70329;45.524;10.194;2024-03-23T09:19:59;99715.38;;;18.50;79.56
49759;BME280;70329;45.524;10.194;2024-03-23T09:22:25;99710.59;;;18.59;80.42
49759;BME280;70329;45.524;10.194;2024-03-23T09:24:51;99708.66;;;18.51;82.39
49759;BME280;70329;45.524;10.194;2024-03-23T09:27:17;99706.72;;;18.51;81.13
49759;BME280;70329;45.524;10.194;2024-03-23T09:29:43;99694.66;;;18.47;85.78
49759;BME280;70329;45.524;10.194;2024-03-23T09:32:11;99683.38;;;18.52;83.94
49759;BME280;70329;45.524;10.194;2024-03-23T09:34:37;99685.63;;;18.59;83.88
49759;BME280;70329;45.524;10.194;2024-03-23T09:37:04;99671.66;;;18.68;85.41
49759;BME280;70329;45.524;10.194;2024-03-23T09:39:29;99665.56;;;18.74;85.65
49759;BME280;70329;45.524;10.194;2024-03-23T09:41:57;99660.97;;;18.78;85.69
49759;BME280;70329;45.524;10.194;2024-03-23T09:44:24;99640.16;;;18.84;82.43
49759;BME280;70329;45.524;10.194;2024-03-23T09:46:51;99642.22;;;18.87;86.21
49759;BME280;70329;45.524;10.194;2024-03-23T09:49:18;99633.81;;;18.96;83.70
49759;BME280;70329;45.524;10.194;2024-03-23T09:51:45;99642.25;;;18.99;82.04
49759;BME280;70329;45.524;10.194;2024-03-23T09:54:11;99635.00;;;19.07;81.55
49759;BME280;70329;45.524;10.194;2024-03-23T09:56:37;99627.16;;;19.09;79.92
49759;BME280;70329;45.524;10.194;2024-03-23T09:59:03;99615.69;;;19.10;80.50
49759;BME280;70329;45.524;10.194;2024-03-23T10:01:30;99618.81;;;19.21;81.18
49759;BME280;70329;45.524;10.194;2024-03-23T10:03:55;99614.09;;;19.09;83.90
49759;BME280;70329;45.524;10.194;2024-03-23T10:06:23;99605.97;;;19.04;85.05
49759;BME280;70329;45.524;10.194;2024-03-23T10:08:50;99601.69;;;19.19;80.81
49759;BME280;70329;45.524;10.194;2024-03-23T10:11:17;99597.28;;;19.18;82.49
49759;BME280;70329;45.524;10.194;2024-03-23T10:13:43;99599.34;;;18.85;86.20
49759;BME280;70329;45.524;10.194;2024-03-23T10:16:11;99602.88;;;18.61;86.29
49759;BME280;70329;45.524;10.194;2024-03-23T10:18:37;99598.09;;;18.49;86.31
49759;BME280;70329;45.524;10.194;2024-03-23T10:21:10;99593.09;;;18.76;87.44
49759;BME280;70329;45.524;10.194;2024-03-23T10:23:40;99592.88;;;18.81;87.51
49759;BME280;70329;45.524;10.194;2024-03-23T10:26:15;99579.75;;;18.57;93.63
49759;BME280;70329;45.524;10.194;2024-03-23T10:28:51;99567.88;;;18.69;96.55
49759;BME280;70329;45.524;10.194;2024-03-23T10:31:18;99571.59;;;18.85;94.90
49759;BME280;70329;45.524;10.194;2024-03-23T10:33:45;99567.81;;;19.13;90.11
49759;BME280;70329;45.524;10.194;2024-03-23T10:36:12;99564.34;;;19.53;87.53
49759;BME280;70329;45.524;10.194;2024-03-23T10:38:40;99566.44;;;19.44;88.94
49759;BME280;70329;45.524;10.194;2024-03-23T10:41:08;99573.03;;;19.15;90.99
49759;BME280;70329;45.524;10.194;2024-03-23T10:43:35;99567.81;;;19.26;86.34
49759;BME280;70329;45.524;10.194;2024-03-23T10:46:04;99563.28;;;19.57;87.09
49759;BME280;70329;45.524;10.194;2024-03-23T10:48:31;99556.59;;;19.58;82.97
49759;BME280;70329;45.524;10.194;2024-03-23T10:50:58;99543.81;;;19.82;83.27
49759;BME280;70329;45.524;10.194;2024-03-23T10:53:26;99545.25;;;20.03;81.59
49759;BME280;70329;45.524;10.194;2024-03-23T10:55:54;99528.03;;;20.13;80.52
49759;BME280;70329;45.524;10.194;2024-03-23T10:58:26;99523.94;;;20.35;80.62
49759;BME280;70329;45.524;10.194;2024-03-23T11:00:54;99511.34;;;20.41;79.98
49759;BME280;70329;45.524;10.194;2024-03-23T11:03:31;99511.41;;;20.57;78.15
49759;BME280;70329;45.524;10.194;2024-03-23T11:05:57;99507.88;;;20.44;74.89
49759;BME280;70329;45.524;10.194;2024-03-23T11:08:31;99506.81;;;20.49;74.20
49759;BME280;70329;45.524;10.194;2024-03-23T11:13:51;99501.91;;;20.30;74.46
49759;BME280;70329;45.524;10.194;2024-03-23T11:16:23;99494.50;;;20.34;75.87
49759;BME280;70329;45.524;10.194;2024-03-23T11:18:50;99479.16;;;20.40;74.05
49759;BME280;70329;45.524;10.194;2024-03-23T11:21:53;99481.78;;;20.64;75.25
49759;BME280;70329;45.524;10.194;2024-03-23T11:24:21;99475.56;;;20.86;73.99
49759;BME280;70329;45.524;10.194;2024-03-23T11:26:47;99463.53;;;20.98;71.49
49759;BME280;70329;45.524;10.194;2024-03-23T11:29:16;99451.69;;;20.85;71.02
49759;BME280;70329;45.524;10.194;2024-03-23T11:31:46;99455.81;;;20.60;73.12
49759;BME280;70329;45.524;10.194;2024-03-23T11:34:12;99465.44;;;20.47;72.67
49759;BME280;70329;45.524;10.194;2024-03-23T11:36:38;99452.97;;;19.98;75.19
49759;BME280;70329;45.524;10.194;2024-03-23T11:39:15;99446.28;;;19.59;78.77
49759;BME280;70329;45.524;10.194;2024-03-23T11:41:46;99437.44;;;19.41;77.51
49759;BME280;70329;45.524;10.194;2024-03-23T11:44:18;99437.44;;;19.29;81.02
49759;BME280;70329;45.524;10.194;2024-03-23T11:46:46;99426.75;;;19.03;83.79
49759;BME280;70329;45.524;10.194;2024-03-23T11:49:22;99426.06;;;18.94;85.14
49759;BME280;70329;45.524;10.194;2024-03-23T11:51:48;99417.28;;;18.92;86.38
49759;BME280;70329;45.524;10.194;2024-03-23T11:54:15;99406.97;;;18.93;87.20
49759;BME280;70329;45.524;10.194;2024-03-23T11:56:54;99405.81;;;18.94;87.42
49759;BME280;70329;45.524;10.194;2024-03-23T11:59:32;99398.44;;;18.98;86.23
49759;BME280;70329;45.524;10.194;2024-03-23T12:01:58;99384.84;;;19.21;86.84
49759;BME280;70329;45.524;10.194;2024-03-23T12:04:26;99393.22;;;19.48;85.61
49759;BME280;70329;45.524;10.194;2024-03-23T12:07:10;99374.97;;;19.63;84.49
49759;BME280;70329;45.524;10.194;2024-03-23T12:09:37;99374.19;;;19.62;82.79
49759;BME280;70329;45.524;10.194;2024-03-23T12:12:08;99370.13;;;19.60;82.45
49759;BME280;70329;45.524;10.194;2024-03-23T12:14:37;99368.91;;;19.73;81.61
49759;BME280;70329;45.524;10.194;2024-03-23T12:17:10;99359.88;;;19.76;79.97
49759;BME280;70329;45.524;10.194;2024-03-23T12:19:37;99352.47;;;19.96;77.84
49759;BME280;70329;45.524;10.194;2024-03-23T12:22:03;99356.28;;;19.91;76.01
49759;BME280;70329;45.524;10.194;2024-03-23T12:24:31;99359.50;;;19.77;77.56
49759;BME280;70329;45.524;10.194;2024-03-23T12:27:01;99346.19;;;19.55;80.29
49759;BME280;70329;45.524;10.194;2024-03-23T12:29:32;99339.00;;;19.54;80.12
49759;BME280;70329;45.524;10.194;2024-03-23T12:32:02;99347.56;;;19.61;80.61
49759;BME280;70329;45.524;10.194;2024-03-23T12:34:29;99341.31;;;19.80;78.27
49759;BME280;70329;45.524;10.194;2024-03-23T12:36:56;99346.22;;;19.71;78.08
49759;BME280;70329;45.524;10.194;2024-03-23T12:39:23;99336.00;;;19.59;80.54
49759;BME280;70329;45.524;10.194;2024-03-23T12:41:49;99343.72;;;19.38;83.40
49759;BME280;70329;45.524;10.194;2024-03-23T12:44:22;99342.53;;;19.11;86.70
49759;BME280;70329;45.524;10.194;2024-03-23T12:46:47;99337.03;;;18.87;88.65
49759;BME280;70329;45.524;10.194;2024-03-23T12:49:15;99337.09;;;18.63;90.96
49759;BME280;70329;45.524;10.194;2024-03-23T12:51:49;99337.31;;;18.34;94.46
49759;BME280;70329;45.524;10.194;2024-03-23T12:54:21;99340.88;;;18.10;97.66
49759;BME280;70329;45.524;10.194;2024-03-23T12:56:46;99331.06;;;17.88;100.00
49759;BME280;70329;45.524;10.194;2024-03-23T12:59:14;99330.88;;;17.73;100.00
49759;BME280;70329;45.524;10.194;2024-03-23T13:01:40;99323.25;;;17.58;100.00
49759;BME280;70329;45.524;10.194;2024-03-23T13:04:06;99318.72;;;17.53;100.00
49759;BME280;70329;45.524;10.194;2024-03-23T13:06:33;99325.91;;;17.54;100.00
49759;BME280;70329;45.524;10.194;2024-03-23T13:09:00;99324.06;;;17.58;100.00
49759;BME280;70329;45.524;10.194;2024-03-23T13:11:26;99322.13;;;17.71;100.00
49759;BME280;70329;45.524;10.194;2024-03-23T13:13:52;99318.44;;;17.79;100.00
49759;BME280;70329;45.524;10.194;2024-03-23T13:16:18;99316.97;;;17.93;100.00
49759;BME280;70329;45.524;10.194;2024-03-23T13:18:45;99313.63;;;18.24;100.00
49759;BME280;70329;45.524;10.194;2024-03-23T13:21:10;99311.22;;;18.35;99.37
49759;BME280;70329;45.524;10.194;2024-03-23T13:23:38;99299.53;;;18.66;97.64
49759;BME280;70329;45.524;10.194;2024-03-23T13:26:07;99297.41;;;18.87;92.76
49759;BME280;70329;45.524;10.194;2024-03-23T13:28:34;99285.00;;;18.96;93.31
49759;BME280;70329;45.524;10.194;2024-03-23T13:31:00;99271.66;;;19.30;88.51
49759;BME280;70329;45.524;10.194;2024-03-23T13:33:29;99259.75;;;19.57;86.32
49759;BME280;70329;45.524;10.194;2024-03-23T13:35:55;99253.75;;;19.70;84.99
49759;BME280;70329;45.524;10.194;2024-03-23T13:38:22;99233.22;;;19.75;84.66
49759;BME280;70329;45.524;10.194;2024-03-23T13:40:57;99222.75;;;19.84;83.49